Terminal Aerodrome Forecast
Issued by NWS

Home | Current Version | Previous Version | Text Only | Print | Product List | Glossary On
Versions: 1 2 3 4 5 6 7 8 9 10 11 12 13 14 15
000
FTAK31 PAJN 230520
TAFAYA
TAF
PAYA 230520Z 2306/2406 06008KT 3SM -SN OVC025
      TEMPO 2306/2309 1SM -SN BKN008 OVC025
     FM230900 06005KT 4SM -SN SCT006 SCT010 OVC025
     FM231200 09010KT 2SM -SN SCT003 OVC006
     FM231800 12010KT 3SM -RASN BKN015 OVC025
      AMD LTD TO CLD VIS AND WIND 2306/2309=

USA.gov is the U.S. government's official web portal to all federal, state and local government web resources and services.